createdAt,value
2023-01-29T00:00:09.964Z,14.50
2023-01-29T00:01:11.841Z,16.00
2023-01-29T00:02:13.417Z,15.18
2023-01-29T00:03:16.015Z,13.82
2023-01-29T00:04:18.184Z,14.07
2023-01-29T00:05:28.456Z,12.68
2023-01-29T00:06:30.656Z,14.13
2023-01-29T00:07:32.550Z,16.98
2023-01-29T00:08:38.621Z,17.05
2023-01-29T00:09:40.429Z,14.77
2023-01-29T00:10:41.841Z,16.70
2023-01-29T00:11:43.572Z,15.18
2023-01-29T00:12:44.970Z,16.95
2023-01-29T00:13:46.701Z,15.30
2023-01-29T00:14:48.166Z,15.02
2023-01-29T00:15:57.438Z,14.73
2023-01-29T00:16:58.839Z,14.93
2023-01-29T00:18:00.249Z,14.90
2023-01-29T00:19:02.636Z,14.48
2023-01-29T00:20:04.341Z,16.02
2023-01-29T00:21:13.469Z,16.75
2023-01-29T00:22:14.953Z,14.23
2023-01-29T00:23:16.543Z,16.00
2023-01-29T00:24:18.166Z,17.15
2023-01-29T00:25:19.597Z,17.48
2023-01-29T00:26:21.073Z,15.48
2023-01-29T00:27:22.513Z,16.73
2023-01-29T00:28:23.962Z,14.77
2023-01-29T00:29:25.409Z,16.52
2023-01-29T00:30:26.822Z,16.35
2023-01-29T00:31:28.727Z,13.85
2023-01-29T00:32:30.203Z,15.38
2023-01-29T00:33:31.643Z,17.85
2023-01-29T00:34:33.070Z,14.70
2023-01-29T00:35:35.114Z,19.00
2023-01-29T00:36:36.579Z,16.02
2023-01-29T00:37:38.454Z,15.25
2023-01-29T00:38:40.112Z,18.75
2023-01-29T00:39:47.805Z,15.95
2023-01-29T00:41:08.469Z,14.80
2023-01-29T00:42:28.250Z,14.48
2023-01-29T00:43:48.102Z,15.40
2023-01-29T00:44:58.745Z,15.80
2023-01-29T00:46:00.176Z,18.27
2023-01-29T00:47:02.429Z,14.23
2023-01-29T00:48:04.259Z,14.10
2023-01-29T00:49:07.076Z,14.70
2023-01-29T00:50:11.119Z,16.20
2023-01-29T00:51:12.567Z,16.45
2023-01-29T00:52:26.027Z,14.50
2023-01-29T00:53:28.013Z,13.52
2023-01-29T00:54:30.099Z,12.77
2023-01-29T00:55:32.426Z,12.98
2023-01-29T00:56:36.690Z,17.50
2023-01-29T00:57:39.011Z,15.13
2023-01-29T00:58:40.508Z,18.73
2023-01-29T00:59:41.970Z,16.15
2023-01-29T01:00:43.510Z,15.65
2023-01-29T01:02:03.568Z,15.63
2023-01-29T01:03:07.904Z,15.73
2023-01-29T01:04:11.354Z,16.33
2023-01-29T01:05:18.189Z,13.48
2023-01-29T01:06:19.774Z,15.77
2023-01-29T01:07:21.198Z,17.15
2023-01-29T01:08:41.367Z,17.60
2023-01-29T01:10:01.096Z,15.73
2023-01-29T01:11:05.332Z,17.42
2023-01-29T01:12:06.794Z,17.80
2023-01-29T01:13:08.367Z,16.52
2023-01-29T01:14:09.808Z,18.70
2023-01-29T01:15:11.882Z,17.52
2023-01-29T01:16:15.511Z,22.33
2023-01-29T01:17:17.415Z,18.30
2023-01-29T01:18:22.183Z,18.90
2023-01-29T01:19:23.611Z,17.98
2023-01-29T01:20:27.062Z,18.58
2023-01-29T01:21:28.479Z,16.92
2023-01-29T01:22:31.116Z,18.08
2023-01-29T01:23:33.256Z,16.27
2023-01-29T01:25:36.353Z,17.45
2023-01-29T01:26:37.815Z,18.42
2023-01-29T01:27:41.261Z,20.00
2023-01-29T01:28:42.736Z,18.33
2023-01-29T01:29:44.149Z,18.83
2023-01-29T01:30:45.669Z,17.13
2023-01-29T01:31:47.142Z,17.40
2023-01-29T01:32:48.847Z,18.33
2023-01-29T01:33:51.577Z,17.40
2023-01-29T01:34:53.598Z,19.17
2023-01-29T01:35:55.024Z,17.55
2023-01-29T01:36:56.574Z,17.60
2023-01-29T01:37:58.128Z,17.00
2023-01-29T01:38:59.586Z,17.23
2023-01-29T01:40:00.974Z,16.30
2023-01-29T01:41:02.400Z,20.08
2023-01-29T01:42:03.967Z,20.13
2023-01-29T01:43:06.173Z,17.08
2023-01-29T01:45:19.915Z,16.48
2023-01-29T01:46:22.229Z,19.52
2023-01-29T01:47:29.384Z,18.42
2023-01-29T01:48:30.830Z,17.92
2023-01-29T01:49:32.260Z,19.17
2023-01-29T01:50:49.769Z,18.40
2023-01-29T01:51:52.583Z,17.95
2023-01-29T01:52:59.892Z,20.73
2023-01-29T01:54:09.934Z,22.13
2023-01-29T01:55:14.697Z,22.02
2023-01-29T01:56:27.808Z,19.33
2023-01-29T01:57:32.099Z,18.92
2023-01-29T01:58:37.448Z,18.75
2023-01-29T01:59:40.879Z,18.40
2023-01-29T02:00:42.791Z,18.83
2023-01-29T02:01:50.118Z,23.75
2023-01-29T02:03:10.497Z,21.40
2023-01-29T02:04:35.295Z,19.55
2023-01-29T02:05:56.613Z,21.50
2023-01-29T02:07:19.495Z,21.13
2023-01-29T02:08:50.873Z,17.90
2023-01-29T02:09:58.079Z,19.23
2023-01-29T02:11:00.154Z,20.33
2023-01-29T02:12:03.839Z,23.17
2023-01-29T02:13:07.295Z,22.35
2023-01-29T02:14:09.302Z,20.10
2023-01-29T02:15:11.477Z,18.17
2023-01-29T02:17:16.898Z,22.40
2023-01-29T02:18:21.489Z,18.42
2023-01-29T02:19:47.112Z,21.42
2023-01-29T02:21:34.745Z,20.50
2023-01-29T02:22:54.979Z,24.30
2023-01-29T02:25:16.602Z,23.75
2023-01-29T02:26:40.890Z,23.00
2023-01-29T02:27:48.354Z,22.40
2023-01-29T02:29:25.350Z,19.55
2023-01-29T02:30:46.143Z,23.17
2023-01-29T02:31:57.015Z,22.33
2023-01-29T02:33:16.570Z,22.63
2023-01-29T02:34:27.590Z,20.90
2023-01-29T02:35:34.565Z,23.30
2023-01-29T02:36:45.649Z,23.42
2023-01-29T02:38:05.083Z,22.42
2023-01-29T02:39:21.246Z,23.35
2023-01-29T02:40:36.932Z,22.10
2023-01-29T02:42:00.827Z,21.20
2023-01-29T02:43:06.441Z,21.35
2023-01-29T02:44:22.794Z,21.25
2023-01-29T02:45:59.684Z,20.10
2023-01-29T02:47:21.954Z,21.77
2023-01-29T02:48:27.616Z,21.52
2023-01-29T02:49:34.118Z,22.63
2023-01-29T02:50:57.873Z,22.20
2023-01-29T02:52:14.931Z,22.33
2023-01-29T02:53:27.341Z,22.50
2023-01-29T02:54:41.911Z,20.88
2023-01-29T02:56:02.694Z,22.10
2023-01-29T02:57:16.428Z,20.23
2023-01-29T02:58:44.133Z,20.13
2023-01-29T02:59:55.400Z,22.45
2023-01-29T03:01:04.436Z,18.58
2023-01-29T03:02:12.962Z,22.13
2023-01-29T03:03:19.035Z,23.02
2023-01-29T03:04:25.857Z,21.05
2023-01-29T03:05:35.102Z,21.90
2023-01-29T03:06:42.111Z,21.58
2023-01-29T03:07:52.013Z,21.88
2023-01-29T03:09:01.141Z,20.67
2023-01-29T03:10:08.243Z,19.83
2023-01-29T03:11:14.807Z,20.10
2023-01-29T03:12:33.858Z,23.08
2023-01-29T03:13:43.248Z,22.05
2023-01-29T03:15:07.601Z,19.95
2023-01-29T03:16:32.557Z,20.58
2023-01-29T03:17:41.076Z,21.38
2023-01-29T03:19:05.873Z,18.13
2023-01-29T03:20:13.835Z,18.98
2023-01-29T03:21:41.216Z,20.83
2023-01-29T03:22:48.843Z,24.20
2023-01-29T03:24:08.654Z,21.40
2023-01-29T03:25:30.995Z,20.55
2023-01-29T03:26:50.706Z,20.00
2023-01-29T03:28:22.943Z,21.63
2023-01-29T03:29:43.237Z,21.50
2023-01-29T03:31:10.724Z,21.42
2023-01-29T03:32:14.588Z,22.50
2023-01-29T03:33:19.330Z,19.60
2023-01-29T03:34:28.369Z,22.80
2023-01-29T03:35:37.445Z,22.23
2023-01-29T03:36:56.290Z,23.00
2023-01-29T03:37:57.733Z,20.45
2023-01-29T03:38:59.418Z,22.83
2023-01-29T03:40:05.401Z,20.85
2023-01-29T03:41:16.456Z,21.10
2023-01-29T03:42:26.599Z,22.13
2023-01-29T03:43:33.673Z,21.35
2023-01-29T03:44:40.251Z,24.80
2023-01-29T03:46:00.108Z,19.42
2023-01-29T03:47:43.398Z,24.23
2023-01-29T03:48:54.484Z,19.80
2023-01-29T03:50:19.530Z,22.63
2023-01-29T03:51:32.441Z,22.25
2023-01-29T03:52:47.213Z,21.40
2023-01-29T03:53:55.436Z,20.67
2023-01-29T03:56:08.547Z,19.75
2023-01-29T03:57:33.452Z,18.90
2023-01-29T03:58:47.593Z,19.75
2023-01-29T03:59:57.792Z,22.10
2023-01-29T04:01:09.045Z,23.95
2023-01-29T04:02:15.504Z,22.85
2023-01-29T04:03:33.243Z,23.73
2023-01-29T04:04:37.555Z,24.15
2023-01-29T04:06:11.657Z,22.63
2023-01-29T04:07:24.408Z,23.85
2023-01-29T04:08:30.474Z,26.58
2023-01-29T04:09:37.337Z,22.92
2023-01-29T04:10:41.996Z,25.40
2023-01-29T04:11:49.547Z,23.45
2023-01-29T04:12:59.682Z,19.38
2023-01-29T04:14:01.279Z,22.30
2023-01-29T04:15:09.124Z,22.77
2023-01-29T04:16:16.853Z,24.60
2023-01-29T04:17:24.111Z,22.20
2023-01-29T04:18:25.635Z,22.65
2023-01-29T04:19:28.076Z,24.55
2023-01-29T04:20:29.890Z,27.60
2023-01-29T04:21:32.015Z,26.30
2023-01-29T04:23:36.562Z,23.48
2023-01-29T04:24:38.077Z,22.05
2023-01-29T04:26:06.791Z,22.08
2023-01-29T04:27:29.742Z,28.60
2023-01-29T04:29:16.498Z,25.95
2023-01-29T04:30:18.153Z,21.75
2023-01-29T04:31:27.226Z,22.95
2023-01-29T04:32:40.729Z,21.10
2023-01-29T04:34:05.623Z,27.00
2023-01-29T04:35:41.810Z,23.75
2023-01-29T04:37:02.876Z,25.70
2023-01-29T04:38:10.354Z,23.75
2023-01-29T04:39:28.726Z,25.73
2023-01-29T04:41:02.263Z,23.08
2023-01-29T04:42:14.701Z,22.25
2023-01-29T04:43:24.537Z,27.30
2023-01-29T04:44:37.593Z,24.58
2023-01-29T04:45:47.996Z,28.15
2023-01-29T04:47:03.357Z,24.35
2023-01-29T04:48:30.165Z,27.05
2023-01-29T04:49:43.846Z,21.88
2023-01-29T04:50:56.637Z,22.67
2023-01-29T04:52:07.095Z,24.35
2023-01-29T04:53:37.449Z,26.45
2023-01-29T04:54:54.266Z,24.52
2023-01-29T04:56:06.163Z,28.05
2023-01-29T04:57:17.965Z,28.05
2023-01-29T04:58:33.120Z,26.25
2023-01-29T04:59:44.987Z,24.35
2023-01-29T05:00:53.444Z,23.52
2023-01-29T05:01:55.531Z,29.30
2023-01-29T05:02:57.525Z,26.00
2023-01-29T05:04:02.093Z,25.85
2023-01-29T05:05:06.112Z,24.45
2023-01-29T05:06:09.942Z,26.25
2023-01-29T05:07:14.388Z,26.88
2023-01-29T05:08:21.654Z,24.35
2023-01-29T05:09:25.033Z,23.92
2023-01-29T05:10:27.218Z,29.63
2023-01-29T05:12:34.155Z,25.83
2023-01-29T05:13:40.533Z,27.27
2023-01-29T05:14:44.471Z,28.90
2023-01-29T05:15:52.424Z,23.63
2023-01-29T05:16:58.234Z,30.25
2023-01-29T05:18:02.875Z,29.48
2023-01-29T05:19:04.315Z,28.13
2023-01-29T05:20:07.065Z,29.13
2023-01-29T05:21:09.463Z,25.65
2023-01-29T05:22:15.403Z,28.08
2023-01-29T05:23:18.764Z,27.10
2023-01-29T05:24:22.449Z,27.20
2023-01-29T05:25:26.712Z,26.70
2023-01-29T05:26:46.451Z,26.88
2023-01-29T05:28:11.848Z,24.45
2023-01-29T05:29:13.291Z,27.77
2023-01-29T05:30:15.112Z,25.98
2023-01-29T05:31:16.880Z,25.65
2023-01-29T05:32:18.443Z,26.30
2023-01-29T05:33:29.014Z,27.40
2023-01-29T05:34:30.615Z,32.47
2023-01-29T05:35:32.311Z,23.55
2023-01-29T05:36:33.708Z,26.30
2023-01-29T05:37:35.153Z,31.58
2023-01-29T05:38:36.540Z,28.52
2023-01-29T05:39:37.965Z,31.70
2023-01-29T05:40:39.423Z,32.30
2023-01-29T05:41:41.089Z,32.75
2023-01-29T05:42:42.541Z,33.45
2023-01-29T05:43:43.979Z,35.83
2023-01-29T05:44:45.589Z,33.63
2023-01-29T05:45:55.491Z,37.40
2023-01-29T05:46:57.128Z,33.10
2023-01-29T05:48:00.006Z,38.50
2023-01-29T05:49:01.459Z,37.20
2023-01-29T05:50:02.940Z,36.00
2023-01-29T05:51:05.180Z,39.47
2023-01-29T05:53:09.349Z,36.97
2023-01-29T05:54:13.920Z,35.00
2023-01-29T05:55:15.469Z,37.28
2023-01-29T05:56:16.870Z,35.13
2023-01-29T05:57:18.310Z,38.83
2023-01-29T05:58:19.818Z,37.38
2023-01-29T05:59:21.384Z,36.42
2023-01-29T06:00:23.078Z,42.40
2023-01-29T06:01:26.350Z,45.90
2023-01-29T06:02:31.571Z,44.10
2023-01-29T06:03:33.093Z,46.75
2023-01-29T06:04:34.513Z,44.65
2023-01-29T06:05:39.613Z,40.63
2023-01-29T06:06:41.019Z,40.88
2023-01-29T06:07:45.234Z,37.72
2023-01-29T06:08:47.306Z,39.17
2023-01-29T06:09:48.778Z,35.10
2023-01-29T06:10:50.204Z,39.08
2023-01-29T06:11:51.687Z,36.60
2023-01-29T06:12:53.123Z,42.10
2023-01-29T06:13:54.699Z,40.33
2023-01-29T06:14:56.121Z,39.95
2023-01-29T06:15:57.629Z,42.00
2023-01-29T06:16:59.344Z,41.72
2023-01-29T06:18:00.783Z,45.63
2023-01-29T06:19:02.186Z,36.85
2023-01-29T06:20:04.845Z,42.33
2023-01-29T06:21:09.337Z,45.40
2023-01-29T06:22:10.922Z,38.70
2023-01-29T06:23:12.433Z,40.45
2023-01-29T06:24:14.025Z,43.20
2023-01-29T06:25:15.730Z,41.40
2023-01-29T06:26:17.160Z,40.47
2023-01-29T06:27:18.900Z,40.20
2023-01-29T06:28:20.313Z,45.97
2023-01-29T06:29:21.798Z,41.40
2023-01-29T06:30:23.372Z,39.22
2023-01-29T06:31:37.976Z,44.17
2023-01-29T06:32:40.562Z,44.80
2023-01-29T06:33:42.034Z,45.30
2023-01-29T06:34:43.448Z,37.83
2023-01-29T06:35:44.865Z,42.15
2023-01-29T06:36:46.686Z,40.75
2023-01-29T06:37:48.165Z,45.42
2023-01-29T06:38:49.616Z,41.35
2023-01-29T06:39:51.105Z,40.58
2023-01-29T06:40:55.492Z,45.10
2023-01-29T06:41:56.958Z,45.72
2023-01-29T06:43:00.541Z,43.08
2023-01-29T06:44:01.996Z,43.65
2023-01-29T06:45:03.688Z,41.97
2023-01-29T06:46:07.566Z,46.75
2023-01-29T06:47:08.970Z,40.15
2023-01-29T06:48:10.377Z,47.45
2023-01-29T06:49:11.822Z,45.03
2023-01-29T06:50:13.295Z,45.45
2023-01-29T06:51:14.772Z,43.15
2023-01-29T06:52:16.381Z,46.58
2023-01-29T06:53:18.275Z,43.00
2023-01-29T06:54:19.734Z,38.72
2023-01-29T06:55:21.140Z,42.72
2023-01-29T06:56:23.631Z,39.80
2023-01-29T06:57:25.172Z,42.75
2023-01-29T06:58:26.702Z,42.92
2023-01-29T06:59:28.132Z,44.50
2023-01-29T07:00:31.298Z,44.50
2023-01-29T07:01:36.368Z,42.35
2023-01-29T07:02:38.164Z,45.30
2023-01-29T07:03:41.492Z,40.20
2023-01-29T07:04:42.950Z,48.63
2023-01-29T07:05:50.839Z,44.30
2023-01-29T07:06:52.265Z,42.22
2023-01-29T07:07:54.111Z,41.88
2023-01-29T07:08:55.810Z,42.63
2023-01-29T07:09:57.206Z,42.33
2023-01-29T07:11:00.909Z,40.03
2023-01-29T07:12:02.327Z,41.78
2023-01-29T07:13:03.717Z,45.15
2023-01-29T07:14:05.587Z,42.95
2023-01-29T07:15:07.620Z,41.75
2023-01-29T07:16:09.618Z,38.63
2023-01-29T07:17:11.140Z,44.45
2023-01-29T07:18:12.622Z,44.67
2023-01-29T07:19:14.231Z,48.15
2023-01-29T07:20:16.131Z,41.83
2023-01-29T07:21:17.733Z,37.28
2023-01-29T07:22:19.137Z,41.20
2023-01-29T07:23:20.566Z,45.03
2023-01-29T07:24:22.145Z,41.35
2023-01-29T07:25:24.712Z,42.85
2023-01-29T07:26:26.308Z,48.20
2023-01-29T07:27:27.692Z,43.60
2023-01-29T07:28:29.409Z,40.80
2023-01-29T07:29:30.903Z,44.47
2023-01-29T07:30:32.395Z,39.53
2023-01-29T07:31:34.352Z,43.17
2023-01-29T07:32:35.876Z,43.92
2023-01-29T07:33:37.328Z,41.40
2023-01-29T07:34:38.727Z,43.92
2023-01-29T07:35:42.217Z,41.42
2023-01-29T07:36:43.629Z,46.92
2023-01-29T07:37:45.102Z,45.30
2023-01-29T07:38:50.541Z,45.30
2023-01-29T07:39:52.052Z,42.72
2023-01-29T07:40:53.821Z,43.17
2023-01-29T07:41:55.235Z,47.67
2023-01-29T07:43:05.208Z,45.38
2023-01-29T07:44:06.618Z,47.60
2023-01-29T07:45:08.686Z,45.35
2023-01-29T07:46:10.133Z,48.20
2023-01-29T07:47:12.221Z,49.50
2023-01-29T07:48:14.104Z,43.55
2023-01-29T07:49:16.566Z,43.38
2023-01-29T07:50:18.291Z,43.10
2023-01-29T07:51:21.345Z,43.72
2023-01-29T07:52:22.800Z,44.50
2023-01-29T07:53:25.243Z,45.92
2023-01-29T07:54:26.661Z,47.08
2023-01-29T07:55:28.354Z,44.22
2023-01-29T07:56:29.825Z,43.92
2023-01-29T07:57:31.260Z,44.22
2023-01-29T07:58:34.410Z,48.28
2023-01-29T07:59:37.000Z,48.92
2023-01-29T08:00:38.720Z,42.75
2023-01-29T08:01:40.122Z,42.42
2023-01-29T08:02:41.973Z,42.10
2023-01-29T08:03:43.386Z,44.80
2023-01-29T08:04:44.852Z,40.17
2023-01-29T08:05:47.012Z,42.50
2023-01-29T08:08:05.739Z,40.33
2023-01-29T08:09:08.792Z,43.85
2023-01-29T08:10:10.858Z,36.35
2023-01-29T08:11:12.264Z,42.28
2023-01-29T08:12:14.405Z,42.83
2023-01-29T08:14:17.212Z,39.17
2023-01-29T08:15:18.647Z,44.58
2023-01-29T08:16:20.105Z,44.67
2023-01-29T08:17:21.586Z,51.63
2023-01-29T08:18:23.003Z,46.45
2023-01-29T08:19:24.456Z,45.38
2023-01-29T08:20:26.327Z,42.95
2023-01-29T08:21:27.904Z,46.83
2023-01-29T08:22:29.355Z,45.80
2023-01-29T08:23:30.838Z,46.08
2023-01-29T08:24:47.437Z,52.20
2023-01-29T08:25:54.165Z,44.47
2023-01-29T08:26:55.679Z,51.15
2023-01-29T08:27:58.082Z,44.25
2023-01-29T08:28:59.578Z,48.72
2023-01-29T08:30:01.058Z,54.95
2023-01-29T08:31:02.596Z,46.55
2023-01-29T08:32:04.126Z,47.00
2023-01-29T08:33:05.643Z,46.20
2023-01-29T08:34:07.119Z,44.10
2023-01-29T08:35:09.073Z,50.50
2023-01-29T08:36:10.751Z,44.60
2023-01-29T08:37:12.202Z,41.33
2023-01-29T08:38:13.635Z,45.17
2023-01-29T08:39:15.242Z,49.08
2023-01-29T08:40:16.993Z,49.70
2023-01-29T08:41:18.527Z,51.92
2023-01-29T08:42:19.961Z,55.92
2023-01-29T08:43:21.360Z,51.05
2023-01-29T08:44:22.786Z,39.20
2023-01-29T08:45:24.230Z,47.53
2023-01-29T08:46:25.954Z,55.78
2023-01-29T08:48:31.248Z,46.22
2023-01-29T08:49:32.742Z,44.72
2023-01-29T08:50:35.051Z,43.25
2023-01-29T08:51:36.491Z,47.00
2023-01-29T08:52:37.950Z,44.88
2023-01-29T08:53:39.369Z,49.50
2023-01-29T08:54:40.781Z,52.05
2023-01-29T08:55:42.219Z,53.95
2023-01-29T08:56:44.005Z,51.00
2023-01-29T08:57:45.487Z,52.67
2023-01-29T08:58:46.931Z,46.05
2023-01-29T08:59:48.361Z,55.20
2023-01-29T09:00:49.785Z,48.80
2023-01-29T09:01:51.250Z,53.13
2023-01-29T09:02:52.662Z,51.47
2023-01-29T09:03:54.061Z,49.03
2023-01-29T09:04:55.796Z,51.97
2023-01-29T09:05:57.218Z,46.63
2023-01-29T09:06:58.718Z,46.88
2023-01-29T09:08:00.182Z,46.35
2023-01-29T09:09:01.700Z,50.72
2023-01-29T09:10:03.594Z,52.90
2023-01-29T09:11:05.302Z,50.00
2023-01-29T09:12:06.944Z,44.92
2023-01-29T09:13:08.375Z,41.67
2023-01-29T09:14:12.239Z,42.97
2023-01-29T09:15:13.702Z,47.95
2023-01-29T09:16:15.201Z,44.28
2023-01-29T09:17:16.638Z,46.40
2023-01-29T09:18:18.243Z,44.10
2023-01-29T09:19:19.664Z,48.15
2023-01-29T09:20:21.226Z,44.10
2023-01-29T09:21:22.627Z,38.65
2023-01-29T09:22:24.362Z,42.22
2023-01-29T09:23:25.841Z,43.67
2023-01-29T09:24:27.277Z,40.72
2023-01-29T09:25:28.713Z,49.58
2023-01-29T09:26:30.248Z,45.10
2023-01-29T09:27:31.749Z,45.05
2023-01-29T09:28:33.200Z,50.47
2023-01-29T09:29:35.955Z,42.88
2023-01-29T09:30:38.181Z,36.00
2023-01-29T09:31:39.817Z,40.40
2023-01-29T09:32:53.157Z,44.55
2023-01-29T09:33:55.255Z,43.88
2023-01-29T09:34:57.454Z,46.80
2023-01-29T09:35:58.921Z,49.55
2023-01-29T09:37:00.369Z,46.05
2023-01-29T09:38:02.047Z,39.17
2023-01-29T09:39:03.565Z,43.38
2023-01-29T09:40:05.719Z,36.58
2023-01-29T09:42:30.767Z,37.83
2023-01-29T09:43:42.962Z,35.15
2023-01-29T09:45:10.499Z,40.53
2023-01-29T09:46:29.188Z,36.75
2023-01-29T09:47:34.564Z,37.72
2023-01-29T09:48:36.824Z,43.03
2023-01-29T09:49:43.489Z,33.30
2023-01-29T09:50:49.784Z,40.00
2023-01-29T09:52:02.499Z,46.40
2023-01-29T09:53:21.955Z,44.42
2023-01-29T09:54:29.761Z,36.58
2023-01-29T09:55:36.396Z,37.55
2023-01-29T09:56:37.894Z,40.92
2023-01-29T09:57:50.010Z,40.00
2023-01-29T09:58:51.561Z,35.75
2023-01-29T09:59:53.121Z,43.63
2023-01-29T10:01:23.368Z,42.05
2023-01-29T10:03:12.474Z,34.08
2023-01-29T10:04:37.437Z,34.97
2023-01-29T10:05:50.813Z,36.95
2023-01-29T10:07:26.513Z,33.47
2023-01-29T10:09:06.522Z,31.35
2023-01-29T10:10:37.472Z,33.47
2023-01-29T10:11:44.361Z,33.50
2023-01-29T10:13:08.054Z,35.35
2023-01-29T10:14:12.205Z,34.47
2023-01-29T10:15:28.793Z,29.48
2023-01-29T10:16:49.124Z,32.92
2023-01-29T10:18:05.556Z,36.70
2023-01-29T10:19:16.238Z,31.17
2023-01-29T10:20:35.833Z,35.03
2023-01-29T10:22:10.670Z,35.20
2023-01-29T10:23:21.188Z,32.17
2023-01-29T10:24:39.194Z,35.47
2023-01-29T10:25:42.146Z,30.38
2023-01-29T10:26:43.659Z,32.58
2023-01-29T10:27:54.869Z,30.45
2023-01-29T10:28:59.470Z,32.05
2023-01-29T10:30:04.194Z,30.85
2023-01-29T10:31:12.535Z,35.03
2023-01-29T10:32:19.934Z,32.50
2023-01-29T10:34:10.925Z,31.75
2023-01-29T10:35:22.042Z,29.08
2023-01-29T10:36:44.229Z,27.52
2023-01-29T10:37:45.875Z,28.10
2023-01-29T10:38:49.060Z,27.80
2023-01-29T10:39:51.187Z,29.23
2023-01-29T10:42:23.694Z,28.35
2023-01-29T10:43:43.925Z,24.63
2023-01-29T10:44:48.227Z,27.33
2023-01-29T10:45:54.876Z,30.10
2023-01-29T10:47:05.713Z,25.55
2023-01-29T10:48:40.883Z,29.13
2023-01-29T10:50:01.008Z,29.13
2023-01-29T10:52:37.640Z,26.35
2023-01-29T10:53:59.380Z,22.50
2023-01-29T10:55:05.288Z,27.52
2023-01-29T10:56:23.678Z,30.20
2023-01-29T10:57:45.224Z,30.73
2023-01-29T10:58:59.443Z,23.55
2023-01-29T11:00:18.901Z,23.40
2023-01-29T11:01:20.747Z,26.85
2023-01-29T11:02:22.707Z,26.33
2023-01-29T11:03:28.336Z,26.38
2023-01-29T11:04:32.360Z,28.58
2023-01-29T11:05:44.286Z,31.60
2023-01-29T11:06:46.216Z,25.00
2023-01-29T11:07:49.345Z,28.02
2023-01-29T11:09:11.716Z,23.95
2023-01-29T11:10:20.526Z,25.27
2023-01-29T11:11:39.452Z,27.17
2023-01-29T11:12:42.010Z,26.15
2023-01-29T11:13:52.982Z,27.33
2023-01-29T11:15:01.604Z,23.58
2023-01-29T11:16:05.372Z,20.85
2023-01-29T11:17:15.795Z,24.33
2023-01-29T11:18:17.451Z,24.90
2023-01-29T11:19:36.302Z,26.13
2023-01-29T11:20:37.848Z,25.90
2023-01-29T11:21:53.332Z,22.10
2023-01-29T11:22:55.726Z,22.77
2023-01-29T11:24:17.597Z,21.58
2023-01-29T11:25:20.289Z,22.80
2023-01-29T11:26:23.790Z,24.70
2023-01-29T11:27:29.491Z,21.67
2023-01-29T11:28:45.617Z,25.17
2023-01-29T11:29:51.139Z,22.17
2023-01-29T11:30:53.377Z,23.33
2023-01-29T11:31:55.334Z,20.52
2023-01-29T11:33:21.968Z,23.15
2023-01-29T11:34:27.784Z,24.95
2023-01-29T11:35:30.597Z,26.00
2023-01-29T11:36:38.335Z,21.98
2023-01-29T11:37:42.401Z,25.15
2023-01-29T11:38:43.839Z,24.80
2023-01-29T11:39:50.506Z,25.50
2023-01-29T11:40:52.693Z,26.35
2023-01-29T11:42:05.084Z,24.95
2023-01-29T11:43:18.798Z,26.00
2023-01-29T11:44:26.380Z,19.08
2023-01-29T11:45:32.160Z,20.98
2023-01-29T11:46:33.691Z,21.25
2023-01-29T11:47:35.464Z,20.15
2023-01-29T11:48:43.808Z,22.58
2023-01-29T11:49:49.480Z,22.83
2023-01-29T11:50:53.806Z,22.70
2023-01-29T11:51:56.591Z,19.85
2023-01-29T11:53:01.665Z,21.95
2023-01-29T11:54:05.226Z,24.73
2023-01-29T11:55:18.039Z,23.50
2023-01-29T11:56:45.941Z,20.08
2023-01-29T11:57:52.722Z,23.58
2023-01-29T11:58:57.549Z,22.75
2023-01-29T12:00:20.462Z,17.75
2023-01-29T12:01:42.136Z,23.98
2023-01-29T12:02:47.227Z,24.08
2023-01-29T12:03:53.862Z,19.45
2023-01-29T12:05:00.138Z,25.13
2023-01-29T12:06:08.992Z,19.35
2023-01-29T12:07:15.820Z,23.10
2023-01-29T12:08:18.857Z,21.35
2023-01-29T12:09:24.188Z,19.30
2023-01-29T12:10:40.843Z,20.13
2023-01-29T12:11:42.274Z,20.27
2023-01-29T12:12:43.829Z,19.80
2023-01-29T12:13:54.641Z,19.90
2023-01-29T12:15:14.120Z,18.70
2023-01-29T12:16:25.624Z,16.40
2023-01-29T12:17:30.744Z,21.33
2023-01-29T12:18:37.577Z,18.15
2023-01-29T12:19:46.326Z,19.60
2023-01-29T12:20:59.870Z,21.20
2023-01-29T12:22:35.300Z,23.20
2023-01-29T12:23:51.847Z,18.90
2023-01-29T12:25:16.311Z,18.95
2023-01-29T12:26:35.314Z,23.08
2023-01-29T12:28:09.567Z,19.60
2023-01-29T12:29:56.281Z,20.98
2023-01-29T12:31:00.489Z,19.90
2023-01-29T12:32:15.014Z,20.95
2023-01-29T12:33:26.659Z,19.33
2023-01-29T12:34:34.643Z,19.88
2023-01-29T12:35:44.122Z,19.77
2023-01-29T12:36:47.022Z,19.95
2023-01-29T12:38:00.913Z,23.23
2023-01-29T12:39:02.440Z,20.05
2023-01-29T12:40:21.707Z,23.77
2023-01-29T12:41:26.002Z,18.77
2023-01-29T12:42:28.064Z,18.38
2023-01-29T12:44:14.350Z,24.08
2023-01-29T12:45:22.663Z,19.77
2023-01-29T12:46:30.198Z,17.60
2023-01-29T12:47:38.223Z,18.42
2023-01-29T12:48:43.777Z,18.48
2023-01-29T12:49:50.164Z,22.55
2023-01-29T12:50:53.882Z,18.02
2023-01-29T12:52:07.353Z,22.17
2023-01-29T12:53:20.911Z,20.70
2023-01-29T12:54:31.207Z,17.60
2023-01-29T12:55:43.640Z,20.40
2023-01-29T12:56:49.825Z,20.67
2023-01-29T12:57:58.535Z,20.20
2023-01-29T12:59:04.504Z,19.73
2023-01-29T13:00:15.060Z,20.88
2023-01-29T13:01:32.025Z,18.90
2023-01-29T13:02:45.349Z,17.80
2023-01-29T13:03:59.463Z,19.58
2023-01-29T13:06:50.869Z,21.10
2023-01-29T13:07:58.657Z,21.33
2023-01-29T13:09:04.948Z,20.70
2023-01-29T13:10:15.773Z,17.42
2023-01-29T13:11:23.380Z,21.70
2023-01-29T13:12:25.780Z,25.70
2023-01-29T13:13:54.364Z,20.13
2023-01-29T13:15:00.563Z,21.60
2023-01-29T13:16:07.299Z,20.15
2023-01-29T13:17:33.006Z,18.38
2023-01-29T13:18:48.364Z,18.17
2023-01-29T13:19:52.454Z,22.08
2023-01-29T13:20:54.425Z,21.00
2023-01-29T13:21:59.759Z,18.63
2023-01-29T13:23:15.241Z,19.95
2023-01-29T13:24:21.401Z,21.02
2023-01-29T13:25:22.859Z,21.20
2023-01-29T13:26:26.468Z,18.30
2023-01-29T13:27:30.625Z,22.80
2023-01-29T13:28:32.689Z,23.17
2023-01-29T13:29:34.382Z,20.52
2023-01-29T13:30:37.085Z,20.80
2023-01-29T13:31:41.196Z,18.70
2023-01-29T13:32:50.661Z,21.60
2023-01-29T13:34:15.429Z,18.13
2023-01-29T13:35:20.756Z,18.20
2023-01-29T13:36:27.767Z,19.55
2023-01-29T13:37:31.709Z,20.45
2023-01-29T13:38:35.341Z,21.35
2023-01-29T13:39:44.545Z,19.30
2023-01-29T13:40:50.837Z,20.35
2023-01-29T13:41:53.574Z,22.73
2023-01-29T13:42:58.930Z,20.48
2023-01-29T13:44:02.059Z,17.08
2023-01-29T13:46:14.083Z,17.30
2023-01-29T13:47:28.386Z,17.73
2023-01-29T13:48:32.473Z,19.33
2023-01-29T13:49:53.109Z,20.38
2023-01-29T13:50:57.600Z,21.35
2023-01-29T13:52:13.791Z,23.13
2023-01-29T13:53:25.369Z,19.52
2023-01-29T13:54:27.724Z,22.95
2023-01-29T13:55:40.466Z,18.65
2023-01-29T13:56:48.841Z,19.33
2023-01-29T13:57:55.845Z,19.70
2023-01-29T13:58:57.865Z,19.35
2023-01-29T13:59:59.394Z,18.30
2023-01-29T14:01:03.652Z,23.45
2023-01-29T14:02:20.615Z,21.27
2023-01-29T14:03:24.923Z,19.70
2023-01-29T14:04:30.574Z,20.38
2023-01-29T14:05:32.052Z,19.88
2023-01-29T14:06:41.443Z,19.95
2023-01-29T14:07:45.834Z,21.73
2023-01-29T14:08:47.800Z,20.17
2023-01-29T14:10:01.066Z,20.77
2023-01-29T14:11:15.222Z,19.20
2023-01-29T14:13:33.982Z,20.85
2023-01-29T14:14:56.980Z,19.40
2023-01-29T14:15:58.385Z,20.27
2023-01-29T14:17:02.285Z,22.77
2023-01-29T14:18:13.982Z,24.55
2023-01-29T14:19:19.187Z,25.20
2023-01-29T14:20:27.728Z,27.88
2023-01-29T14:21:36.985Z,24.77
2023-01-29T14:22:38.446Z,23.10
2023-01-29T14:23:51.313Z,23.25
2023-01-29T14:25:00.407Z,27.00
2023-01-29T14:26:05.371Z,21.70
2023-01-29T14:27:21.563Z,25.05
2023-01-29T14:28:26.015Z,25.05
2023-01-29T14:29:38.021Z,24.20
2023-01-29T14:30:41.104Z,23.05
2023-01-29T14:32:00.903Z,25.67
2023-01-29T14:33:03.207Z,24.85
2023-01-29T14:34:13.624Z,28.15
2023-01-29T14:35:20.366Z,29.35
2023-01-29T14:36:23.712Z,28.98
2023-01-29T14:37:34.537Z,28.08
2023-01-29T14:38:36.687Z,26.23
2023-01-29T14:40:46.833Z,28.42
2023-01-29T14:41:50.669Z,30.73
2023-01-29T14:43:10.140Z,33.03
2023-01-29T14:44:42.862Z,31.30
2023-01-29T14:45:45.058Z,30.20
2023-01-29T14:46:46.579Z,31.00
2023-01-29T14:47:47.921Z,32.00
2023-01-29T14:48:49.547Z,30.35
2023-01-29T14:49:58.901Z,35.60